John F Kennedy International Airport
KJFK : now visible

Airfield :











YOU CAN JOIN US ON...

 
LOGIN :

Register | Disclaimer

   EN    FR    IT 

 









Legend :    VFR   Marginal VFR   IFR   Intensive IFR   Very Intensive IFR
Visi :
Ceiling :
>= 8 km
>= 3000ft
5 to 8 km
1000 to 3000 ft
1500m to 5 km
500 to 1000 ft
800 to 1500m
200 to 500 ft
< 800m
< 200 ft
Symbols :   Thunderstorms  Fog  Heavy snow  Heavy precipitations  Wind > 20 kt







- Airport Elevation : 13 ft
- IATA code : JFK


KJFK - John F Kennedy International

CURRENT METAR :
  • 201251Z 06006KT 10SM OVC140 M03/M12 A3063 RMK AO2 SLP372 T10281117

EXPIRED METARs :
  • 201151Z 07006KT 10SM OVC170 M03/M11 A3060 RMK AO2 SLP362 T10281111 11017 21028 58004
  • 201051Z 06007KT 10SM OVC180 M03/M11 A3060 RMK AO2 SLP363 T10281111

TAF KJFK
Valid from the 20 at 12:00 until the 21 at 18:00 UTC


201131Z 2012/2118 07005KT P6SM OVC150
FM201500 11006KT P6SM FEW030 BKN070
FM201700 14006KT 3/4SM -SN SCT010 OVC025
FM201900 12006KT 1/2SM SN FG OVC020
FM202100 11008KT 1/2SM SN FG OVC009
FM202300 11009KT 1/2SM SNRAPL OVC007
FM210300 11010KT 2SM RA OVC007
FM210900 VRB04KT 2SM -DZ BR OVC004
FM211200 27008KT 6SM BR OVC004
FM211400 28010KT P6SM SCT025
KZNY FIR / North America



MET'MAP, your aeronautical weather chart ! - Copyright ORBIFLY December 2007 - Disclaimer

ORBIFLY MET'MAP TEAM :

Programming & Development : Alexandra Zaïnal
Concept & Development : Baudouin d'Aumeries
Co-Development & Prog : Marc-Olivier Méhu
Technical & hardware support : Manuel Goepfert

Contact : metmap@orbifly.com




SOURCES & CREDITS :

   NOAA       Earth
Advisory